createdAt,value
2022-11-27T00:01:35.898Z,91.77
2022-11-27T00:04:04.676Z,91.90
2022-11-27T00:06:33.671Z,91.76
2022-11-27T00:09:05.650Z,91.66
2022-11-27T00:11:33.713Z,91.68
2022-11-27T00:14:01.672Z,91.52
2022-11-27T00:16:29.559Z,91.45
2022-11-27T00:18:58.385Z,91.50
2022-11-27T00:21:33.524Z,91.63
2022-11-27T00:24:04.272Z,91.50
2022-11-27T00:26:37.508Z,91.46
2022-11-27T00:29:07.569Z,91.36
2022-11-27T00:31:37.705Z,91.34
2022-11-27T00:34:08.584Z,91.17
2022-11-27T00:36:36.955Z,91.09
2022-11-27T00:39:05.629Z,91.11
2022-11-27T00:41:34.073Z,91.13
2022-11-27T00:44:01.655Z,91.17
2022-11-27T00:46:33.037Z,91.13
2022-11-27T00:49:04.645Z,91.02
2022-11-27T00:51:32.452Z,91.04
2022-11-27T00:54:00.109Z,90.93
2022-11-27T00:56:35.101Z,90.80
2022-11-27T00:59:03.996Z,90.78
2022-11-27T01:01:41.762Z,90.82
2022-11-27T01:04:16.413Z,91.10
2022-11-27T01:06:45.228Z,91.07
2022-11-27T01:09:16.436Z,90.97
2022-11-27T01:11:44.401Z,91.03
2022-11-27T01:14:18.401Z,91.21
2022-11-27T01:16:46.525Z,91.24
2022-11-27T01:19:15.441Z,91.28
2022-11-27T01:21:43.019Z,91.34
2022-11-27T01:24:15.432Z,91.33
2022-11-27T01:26:44.690Z,91.25
2022-11-27T01:29:12.838Z,91.18
2022-11-27T01:31:40.505Z,91.02
2022-11-27T01:34:14.201Z,90.84
2022-11-27T01:36:41.993Z,90.68
2022-11-27T01:39:19.089Z,90.42
2022-11-27T01:41:48.631Z,90.31
2022-11-27T01:44:25.088Z,90.21
2022-11-27T01:47:03.703Z,90.12
2022-11-27T01:49:37.846Z,90.12
2022-11-27T01:52:15.923Z,90.08
2022-11-27T01:55:05.475Z,89.93
2022-11-27T01:57:45.679Z,89.93
2022-11-27T02:00:16.150Z,89.89
2022-11-27T02:02:44.852Z,89.79
2022-11-27T02:05:22.279Z,89.78
2022-11-27T02:07:52.383Z,89.90
2022-11-27T02:10:20.582Z,89.77
2022-11-27T02:13:05.736Z,89.65
2022-11-27T02:15:54.458Z,89.59
2022-11-27T02:18:40.979Z,89.46
2022-11-27T02:21:32.135Z,89.40
2022-11-27T02:24:39.125Z,89.21
2022-11-27T02:27:47.637Z,89.45
2022-11-27T02:30:15.978Z,90.08
2022-11-27T02:32:59.278Z,90.20
2022-11-27T02:35:35.733Z,90.35
2022-11-27T02:38:15.386Z,90.45
2022-11-27T02:40:57.349Z,90.68
2022-11-27T02:43:38.686Z,90.63
2022-11-27T02:46:10.262Z,90.80
2022-11-27T02:48:46.192Z,90.79
2022-11-27T02:51:19.635Z,90.66
2022-11-27T02:53:57.850Z,90.60
2022-11-27T02:56:29.834Z,90.59
2022-11-27T02:59:03.357Z,90.59
2022-11-27T03:01:40.293Z,90.53
2022-11-27T03:04:16.944Z,90.54
2022-11-27T03:06:55.322Z,90.51
2022-11-27T03:09:32.221Z,90.43
2022-11-27T03:12:00.363Z,90.32
2022-11-27T03:14:28.942Z,90.38
2022-11-27T03:17:14.742Z,90.39
2022-11-27T03:20:12.100Z,90.39
2022-11-27T03:22:40.716Z,90.44
2022-11-27T03:25:08.552Z,90.49
2022-11-27T03:27:43.825Z,90.57
2022-11-27T03:30:13.794Z,90.65
2022-11-27T03:32:41.529Z,90.87
2022-11-27T03:35:12.569Z,91.04
2022-11-27T03:37:42.192Z,91.11
2022-11-27T03:40:11.218Z,91.20
2022-11-27T03:42:50.495Z,91.18
2022-11-27T03:45:52.444Z,91.21
2022-11-27T03:48:36.282Z,91.37
2022-11-27T03:51:18.931Z,91.32
2022-11-27T03:54:04.461Z,91.27
2022-11-27T03:57:32.765Z,91.25
2022-11-27T04:00:07.383Z,91.31
2022-11-27T04:02:50.376Z,91.31
2022-11-27T04:05:20.344Z,91.39
2022-11-27T04:07:48.506Z,91.36
2022-11-27T04:10:16.570Z,91.35
2022-11-27T04:12:44.058Z,91.18
2022-11-27T04:15:12.958Z,91.24
2022-11-27T04:17:40.600Z,91.27
2022-11-27T04:20:09.087Z,91.18
2022-11-27T04:22:36.698Z,91.18
2022-11-27T04:25:05.351Z,91.21
2022-11-27T04:27:32.747Z,91.16
2022-11-27T04:30:00.285Z,91.14
2022-11-27T04:32:27.834Z,91.20
2022-11-27T04:34:55.399Z,91.29
2022-11-27T04:37:25.092Z,91.27
2022-11-27T04:39:53.525Z,91.33
2022-11-27T04:42:21.179Z,91.41
2022-11-27T04:44:49.349Z,91.59
2022-11-27T04:47:17.071Z,91.61
2022-11-27T04:49:44.802Z,91.61
2022-11-27T04:52:12.350Z,91.78
2022-11-27T04:54:40.628Z,91.87
2022-11-27T04:57:08.428Z,91.89
2022-11-27T04:59:36.020Z,92.12
2022-11-27T05:02:04.010Z,92.05
2022-11-27T05:04:32.498Z,92.05
2022-11-27T05:07:00.842Z,92.05
2022-11-27T05:09:28.375Z,92.09
2022-11-27T05:11:55.994Z,92.04
2022-11-27T05:14:29.235Z,92.04
2022-11-27T05:16:59.542Z,91.96
2022-11-27T05:19:30.406Z,92.05
2022-11-27T05:21:58.876Z,91.97
2022-11-27T05:24:28.173Z,91.96
2022-11-27T05:26:56.907Z,91.91
2022-11-27T05:29:25.965Z,91.89
2022-11-27T05:31:54.092Z,91.80
2022-11-27T05:34:23.331Z,91.79
2022-11-27T05:36:51.076Z,91.97
2022-11-27T05:39:18.774Z,91.79
2022-11-27T05:41:46.514Z,91.86
2022-11-27T05:44:15.792Z,91.64
2022-11-27T05:46:43.898Z,91.61
2022-11-27T05:49:16.476Z,91.52
2022-11-27T05:51:50.624Z,91.55
2022-11-27T05:54:19.497Z,91.44
2022-11-27T05:56:47.301Z,91.45
2022-11-27T05:59:15.709Z,91.37
2022-11-27T06:01:44.022Z,91.25
2022-11-27T06:04:13.466Z,91.22
2022-11-27T06:06:41.783Z,91.19
2022-11-27T06:09:12.818Z,91.23
2022-11-27T06:11:42.550Z,91.13
2022-11-27T06:14:11.501Z,91.09
2022-11-27T06:16:40.317Z,91.00
2022-11-27T06:19:08.888Z,90.91
2022-11-27T06:21:36.501Z,90.93
2022-11-27T06:24:04.303Z,90.79
2022-11-27T06:26:34.081Z,90.52
2022-11-27T06:29:02.134Z,90.52
2022-11-27T06:31:32.838Z,90.44
2022-11-27T06:34:01.537Z,90.31
2022-11-27T06:36:35.984Z,90.28
2022-11-27T06:39:06.949Z,90.17
2022-11-27T06:41:34.876Z,90.10
2022-11-27T06:44:03.812Z,90.01
2022-11-27T06:46:32.948Z,89.98
2022-11-27T06:49:01.260Z,89.93
2022-11-27T06:51:32.084Z,89.92
2022-11-27T06:54:02.440Z,89.88
2022-11-27T06:56:32.094Z,89.29
2022-11-27T06:59:02.547Z,89.39
2022-11-27T07:01:31.937Z,89.49
2022-11-27T07:04:00.288Z,89.40
2022-11-27T07:06:28.688Z,89.34
2022-11-27T07:08:56.427Z,89.37
2022-11-27T07:11:28.398Z,89.21
2022-11-27T07:13:59.617Z,89.17
2022-11-27T07:16:30.632Z,89.08
2022-11-27T07:19:02.406Z,88.98
2022-11-27T07:21:30.258Z,89.01
2022-11-27T07:23:58.245Z,88.93
2022-11-27T07:26:29.585Z,88.90
2022-11-27T07:28:57.951Z,88.85
2022-11-27T07:31:30.091Z,88.80
2022-11-27T07:33:58.088Z,88.64
2022-11-27T07:36:30.649Z,88.52
2022-11-27T07:38:58.397Z,88.27
2022-11-27T07:41:32.150Z,89.25
2022-11-27T07:44:00.332Z,89.66
2022-11-27T07:46:30.191Z,89.86
2022-11-27T07:48:58.205Z,90.09
2022-11-27T07:51:25.801Z,90.14
2022-11-27T07:53:53.398Z,90.22
2022-11-27T07:56:21.818Z,90.20
2022-11-27T07:58:49.562Z,90.12
2022-11-27T08:01:19.584Z,90.04
2022-11-27T08:03:47.784Z,89.88
2022-11-27T08:06:22.479Z,89.76
2022-11-27T08:08:51.253Z,89.50
2022-11-27T08:11:32.880Z,89.29
2022-11-27T08:14:07.223Z,89.31
2022-11-27T08:16:36.423Z,89.26
2022-11-27T08:19:04.327Z,89.31
2022-11-27T08:21:33.527Z,89.17
2022-11-27T08:24:01.048Z,89.59
2022-11-27T08:26:28.905Z,89.46
2022-11-27T08:28:58.084Z,89.48
2022-11-27T08:31:25.916Z,89.34
2022-11-27T08:33:53.442Z,89.38
2022-11-27T08:36:22.420Z,89.16
2022-11-27T08:38:50.096Z,88.79
2022-11-27T08:41:17.774Z,88.93
2022-11-27T08:43:45.517Z,88.74
2022-11-27T08:46:13.699Z,88.45
2022-11-27T08:48:42.104Z,88.70
2022-11-27T08:51:14.126Z,89.07
2022-11-27T08:53:45.188Z,89.41
2022-11-27T08:56:18.444Z,89.46
2022-11-27T08:58:47.032Z,90.13
2022-11-27T09:01:18.101Z,90.06
2022-11-27T09:03:46.475Z,89.87
2022-11-27T09:06:17.706Z,89.95
2022-11-27T09:08:46.123Z,89.95
2022-11-27T09:11:19.011Z,90.67
2022-11-27T09:13:47.582Z,90.53
2022-11-27T09:16:20.339Z,90.44
2022-11-27T09:18:50.399Z,90.59
2022-11-27T09:21:22.981Z,91.06
2022-11-27T09:24:02.125Z,91.63
2022-11-27T09:26:30.812Z,91.82
2022-11-27T09:29:00.284Z,91.92
2022-11-27T09:31:28.070Z,91.95
2022-11-27T09:33:55.831Z,92.17
2022-11-27T09:36:25.625Z,92.33
2022-11-27T09:38:54.169Z,92.59
2022-11-27T09:41:27.662Z,92.75
2022-11-27T09:44:01.954Z,92.74
2022-11-27T09:46:38.949Z,92.55
2022-11-27T09:49:19.333Z,92.46
2022-11-27T09:52:19.689Z,92.37
2022-11-27T09:54:59.238Z,92.25
2022-11-27T09:57:35.236Z,91.94
2022-11-27T10:00:14.384Z,91.47
2022-11-27T10:02:45.550Z,91.52
2022-11-27T10:05:28.841Z,91.71
2022-11-27T10:08:37.626Z,91.86
2022-11-27T10:11:30.653Z,91.84
2022-11-27T10:14:25.810Z,92.29
2022-11-27T10:17:20.767Z,92.54
2022-11-27T10:19:58.870Z,92.71
2022-11-27T10:22:52.325Z,92.54
2022-11-27T10:25:41.425Z,92.46
2022-11-27T10:28:29.507Z,92.49
2022-11-27T10:31:08.802Z,92.25
2022-11-27T10:34:01.394Z,92.41
2022-11-27T10:36:36.881Z,92.25
2022-11-27T10:39:15.691Z,92.47
2022-11-27T10:42:03.232Z,92.40
2022-11-27T10:44:38.759Z,92.23
2022-11-27T10:47:11.532Z,92.03
2022-11-27T10:49:42.702Z,91.86
2022-11-27T10:52:17.689Z,91.72
2022-11-27T10:54:54.616Z,91.45
2022-11-27T10:57:39.095Z,91.43
2022-11-27T11:00:20.139Z,91.51
2022-11-27T11:02:47.886Z,91.47
2022-11-27T11:05:37.220Z,91.59
2022-11-27T11:08:20.381Z,91.59
2022-11-27T11:11:05.120Z,91.42
2022-11-27T11:13:40.112Z,91.79
2022-11-27T11:16:15.077Z,91.94
2022-11-27T11:18:55.148Z,91.82
2022-11-27T11:21:45.065Z,92.03
2022-11-27T11:24:28.980Z,92.25
2022-11-27T11:27:06.699Z,92.06
2022-11-27T11:29:41.618Z,92.15
2022-11-27T11:32:21.363Z,91.97
2022-11-27T11:35:01.442Z,91.62
2022-11-27T11:37:31.368Z,91.24
2022-11-27T11:40:05.823Z,91.00
2022-11-27T11:42:38.229Z,91.25
2022-11-27T11:45:13.372Z,91.19
2022-11-27T11:47:53.968Z,91.41
2022-11-27T11:50:27.516Z,91.46
2022-11-27T11:53:05.592Z,91.34
2022-11-27T11:55:59.931Z,90.97
2022-11-27T11:58:59.141Z,90.84
2022-11-27T12:02:16.466Z,90.58
2022-11-27T12:05:24.051Z,90.42
2022-11-27T12:07:52.575Z,90.38
2022-11-27T12:10:45.795Z,90.14
2022-11-27T12:13:33.445Z,89.94
2022-11-27T12:16:17.623Z,90.00
2022-11-27T12:19:15.614Z,89.76
2022-11-27T12:22:02.678Z,89.52
2022-11-27T12:25:17.675Z,89.53
2022-11-27T12:28:28.330Z,89.79
2022-11-27T12:31:26.136Z,89.89
2022-11-27T12:34:06.135Z,89.97
2022-11-27T12:36:58.404Z,90.24
2022-11-27T12:39:41.112Z,90.21
2022-11-27T12:42:22.284Z,90.24
2022-11-27T12:44:58.928Z,90.22
2022-11-27T12:47:42.872Z,90.28
2022-11-27T12:50:16.052Z,90.22
2022-11-27T12:53:18.891Z,89.93
2022-11-27T12:56:28.512Z,89.83
2022-11-27T12:59:08.282Z,89.60
2022-11-27T13:01:47.731Z,89.52
2022-11-27T13:04:44.321Z,89.06
2022-11-27T13:07:46.919Z,89.17
2022-11-27T13:10:42.553Z,89.55
2022-11-27T13:13:17.860Z,89.33
2022-11-27T13:16:04.239Z,89.22
2022-11-27T13:18:43.929Z,89.57
2022-11-27T13:21:18.026Z,89.01
2022-11-27T13:23:45.924Z,88.99
2022-11-27T13:26:29.954Z,88.35
2022-11-27T13:29:30.246Z,87.78
2022-11-27T13:32:01.909Z,86.60
2022-11-27T13:34:33.651Z,86.42
2022-11-27T13:37:05.827Z,87.01
2022-11-27T13:39:40.568Z,87.16
2022-11-27T13:42:20.131Z,87.23
2022-11-27T13:45:01.231Z,87.34
2022-11-27T13:47:38.067Z,87.45
2022-11-27T13:50:20.321Z,87.57
2022-11-27T13:53:00.193Z,87.64
2022-11-27T13:55:32.091Z,87.64
2022-11-27T13:58:02.926Z,87.83
2022-11-27T14:00:36.543Z,88.02
2022-11-27T14:03:06.345Z,88.14
2022-11-27T14:05:45.182Z,88.27
2022-11-27T14:08:34.708Z,88.40
2022-11-27T14:11:11.885Z,88.58
2022-11-27T14:13:48.956Z,88.60
2022-11-27T14:16:34.774Z,88.61
2022-11-27T14:19:32.042Z,88.54
2022-11-27T14:22:02.531Z,88.70
2022-11-27T14:24:31.436Z,88.77
2022-11-27T14:26:59.156Z,88.71
2022-11-27T14:29:30.831Z,88.58
2022-11-27T14:32:01.779Z,88.56
2022-11-27T14:34:34.257Z,88.73
2022-11-27T14:37:02.476Z,88.99
2022-11-27T14:39:37.311Z,89.02
2022-11-27T14:42:08.237Z,89.31
2022-11-27T14:44:35.885Z,89.66
2022-11-27T14:47:08.362Z,89.42
2022-11-27T14:49:36.311Z,89.32
2022-11-27T14:52:12.771Z,89.59
2022-11-27T14:54:41.591Z,89.33
2022-11-27T14:57:23.896Z,89.23
2022-11-27T15:00:17.007Z,89.09
2022-11-27T15:02:48.963Z,89.01
2022-11-27T15:05:28.845Z,89.29
2022-11-27T15:08:00.885Z,89.47
2022-11-27T15:10:41.639Z,89.38
2022-11-27T15:13:24.330Z,89.29
2022-11-27T15:16:22.713Z,89.33
2022-11-27T15:18:57.718Z,89.22
2022-11-27T15:21:26.528Z,89.03
2022-11-27T15:23:56.829Z,89.04
2022-11-27T15:26:44.949Z,88.99
2022-11-27T15:29:37.745Z,89.16
2022-11-27T15:32:25.156Z,89.34
2022-11-27T15:34:54.390Z,89.27
2022-11-27T15:37:30.870Z,89.54
2022-11-27T15:39:59.469Z,89.71
2022-11-27T15:42:27.586Z,89.97
2022-11-27T15:44:58.041Z,89.97
2022-11-27T15:47:37.819Z,89.77
2022-11-27T15:50:07.641Z,89.70
2022-11-27T15:52:35.359Z,89.51
2022-11-27T15:55:10.426Z,89.45
2022-11-27T15:57:38.871Z,89.43
2022-11-27T16:00:10.164Z,89.49
2022-11-27T16:02:41.077Z,89.42
2022-11-27T16:05:09.504Z,89.57
2022-11-27T16:07:37.573Z,89.57
2022-11-27T16:10:07.034Z,89.34
2022-11-27T16:12:35.188Z,89.29
2022-11-27T16:15:03.267Z,89.04
2022-11-27T16:17:31.005Z,89.28
2022-11-27T16:19:59.003Z,89.78
2022-11-27T16:22:27.009Z,90.25
2022-11-27T16:24:54.949Z,90.48
2022-11-27T16:27:22.677Z,90.79
2022-11-27T16:29:50.538Z,90.69
2022-11-27T16:32:18.481Z,90.78
2022-11-27T16:34:46.648Z,90.84
2022-11-27T16:37:18.365Z,90.86
2022-11-27T16:39:47.153Z,90.96
2022-11-27T16:42:14.963Z,90.94
2022-11-27T16:44:44.409Z,90.73
2022-11-27T16:47:14.098Z,90.57
2022-11-27T16:49:43.997Z,90.44
2022-11-27T16:52:14.308Z,90.35
2022-11-27T16:54:42.424Z,90.43
2022-11-27T16:57:10.771Z,90.42
2022-11-27T16:59:40.403Z,90.46
2022-11-27T17:02:15.026Z,90.45
2022-11-27T17:04:43.584Z,90.54
2022-11-27T17:07:12.168Z,90.75
2022-11-27T17:09:42.246Z,90.90
2022-11-27T17:12:14.102Z,90.85
2022-11-27T17:14:44.840Z,90.96
2022-11-27T17:17:14.613Z,91.02
2022-11-27T17:19:43.114Z,91.01
2022-11-27T17:22:12.351Z,91.22
2022-11-27T17:24:40.442Z,91.24
2022-11-27T17:27:09.653Z,91.20
2022-11-27T17:29:39.008Z,91.27
2022-11-27T17:32:09.975Z,91.27
2022-11-27T17:34:39.995Z,91.53
2022-11-27T17:37:08.643Z,91.44
2022-11-27T17:39:36.976Z,91.41
2022-11-27T17:42:11.511Z,91.46
2022-11-27T17:44:41.712Z,91.74
2022-11-27T17:47:11.040Z,91.80
2022-11-27T17:49:40.485Z,92.02
2022-11-27T17:52:09.568Z,92.05
2022-11-27T17:54:39.156Z,92.44
2022-11-27T17:57:07.549Z,92.53
2022-11-27T17:59:35.897Z,92.84
2022-11-27T18:02:04.349Z,92.86
2022-11-27T18:04:33.817Z,92.82
2022-11-27T18:07:01.982Z,92.73
2022-11-27T18:09:30.615Z,92.66
2022-11-27T18:11:58.962Z,92.53
2022-11-27T18:14:27.168Z,92.36
2022-11-27T18:17:04.135Z,92.17
2022-11-27T18:19:32.787Z,91.95
2022-11-27T18:22:00.505Z,91.80
2022-11-27T18:24:28.397Z,91.69
2022-11-27T18:27:12.059Z,91.54
2022-11-27T18:29:43.118Z,91.41
2022-11-27T18:32:13.497Z,91.28
2022-11-27T18:34:42.559Z,91.12
2022-11-27T18:37:12.268Z,90.97
2022-11-27T18:39:40.948Z,90.61
2022-11-27T18:42:09.284Z,90.43
2022-11-27T18:44:44.395Z,90.37
2022-11-27T18:47:16.093Z,90.25
2022-11-27T18:49:48.191Z,90.16
2022-11-27T18:52:17.624Z,90.04
2022-11-27T18:54:45.808Z,90.05
2022-11-27T18:57:15.038Z,89.95
2022-11-27T18:59:44.489Z,89.88
2022-11-27T19:02:13.724Z,89.71
2022-11-27T19:04:43.039Z,89.56
2022-11-27T19:07:12.563Z,89.38
2022-11-27T19:09:41.436Z,89.39
2022-11-27T19:12:10.743Z,89.46
2022-11-27T19:14:39.396Z,89.56
2022-11-27T19:17:07.734Z,89.68
2022-11-27T19:22:25.488Z,90.17
2022-11-27T19:24:56.660Z,90.33
2022-11-27T19:27:24.868Z,90.55
2022-11-27T19:29:53.526Z,90.57
2022-11-27T19:32:21.817Z,90.69
2022-11-27T19:34:51.595Z,90.59
2022-11-27T19:37:33.568Z,90.59
2022-11-27T19:40:06.560Z,90.51
2022-11-27T19:42:35.048Z,90.56
2022-11-27T19:45:03.597Z,90.71
2022-11-27T19:47:31.598Z,90.92
2022-11-27T19:49:59.855Z,91.22
2022-11-27T19:52:29.720Z,91.49
2022-11-27T19:54:59.307Z,91.89
2022-11-27T19:57:28.430Z,91.71
2022-11-27T19:59:57.248Z,92.01
2022-11-27T20:02:25.355Z,92.33
2022-11-27T20:04:55.096Z,92.61
2022-11-27T20:07:25.135Z,92.74
2022-11-27T20:09:56.049Z,92.75
2022-11-27T20:12:26.042Z,92.82
2022-11-27T20:14:54.559Z,92.97
2022-11-27T20:17:24.300Z,93.05
2022-11-27T20:19:53.013Z,93.05
2022-11-27T20:22:20.877Z,93.14
2022-11-27T20:25:11.615Z,93.28
2022-11-27T20:27:37.952Z,93.28
2022-11-27T20:30:10.518Z,93.34
2022-11-27T20:32:38.466Z,93.31
2022-11-27T20:35:06.887Z,93.33
2022-11-27T20:37:40.321Z,93.31
2022-11-27T20:40:10.284Z,93.43
2022-11-27T20:42:46.028Z,93.37
2022-11-27T20:45:20.399Z,93.41
2022-11-27T20:47:50.636Z,93.45
2022-11-27T20:50:20.484Z,93.68
2022-11-27T20:52:49.521Z,93.73
2022-11-27T20:55:19.238Z,93.60
2022-11-27T20:57:53.399Z,93.50
2022-11-27T21:00:24.536Z,93.57
2022-11-27T21:02:54.107Z,93.51
2022-11-27T21:05:23.087Z,93.39
2022-11-27T21:07:51.181Z,93.44
2022-11-27T21:10:25.177Z,93.44
2022-11-27T21:12:58.912Z,93.44
2022-11-27T21:15:27.540Z,93.44
2022-11-27T21:18:00.141Z,93.21
2022-11-27T21:20:31.367Z,93.18
2022-11-27T21:22:59.191Z,93.24
2022-11-27T21:25:27.462Z,93.25
2022-11-27T21:27:59.449Z,93.27
2022-11-27T21:30:28.908Z,93.26
2022-11-27T21:32:56.819Z,93.27
2022-11-27T21:35:31.295Z,93.13
2022-11-27T21:38:00.397Z,92.96
2022-11-27T21:40:28.214Z,92.91
2022-11-27T21:42:56.001Z,92.91
2022-11-27T21:45:23.975Z,92.97
2022-11-27T21:47:51.733Z,92.83
2022-11-27T21:50:19.560Z,92.81
2022-11-27T21:52:47.847Z,92.97
2022-11-27T21:55:18.822Z,92.87
2022-11-27T21:57:46.686Z,92.88
2022-11-27T22:00:14.773Z,92.90
2022-11-27T22:02:45.288Z,93.12
2022-11-27T22:05:14.967Z,93.13
2022-11-27T22:07:43.858Z,93.25
2022-11-27T22:10:12.644Z,93.36
2022-11-27T22:12:40.416Z,93.53
2022-11-27T22:15:08.747Z,93.50
2022-11-27T22:17:36.870Z,93.49
2022-11-27T22:20:05.304Z,93.40
2022-11-27T22:22:33.000Z,93.25
2022-11-27T22:25:04.219Z,93.27
2022-11-27T22:27:32.123Z,93.18
2022-11-27T22:30:01.312Z,93.19
2022-11-27T22:32:29.401Z,93.15
2022-11-27T22:34:58.996Z,93.08
2022-11-27T22:37:26.744Z,93.02
2022-11-27T22:39:54.525Z,93.01
2022-11-27T22:42:27.125Z,92.93
2022-11-27T22:44:55.398Z,92.82
2022-11-27T22:47:23.344Z,92.73
2022-11-27T22:49:50.901Z,92.67
2022-11-27T22:52:18.550Z,92.67
2022-11-27T22:54:46.134Z,92.70
2022-11-27T22:57:14.374Z,92.64
2022-11-27T22:59:42.673Z,92.65
2022-11-27T23:02:10.531Z,92.68
2022-11-27T23:04:38.698Z,92.57
2022-11-27T23:07:07.024Z,92.52
2022-11-27T23:09:35.965Z,92.48
2022-11-27T23:12:03.858Z,92.52
2022-11-27T23:14:32.545Z,92.52
2022-11-27T23:17:00.007Z,92.57
2022-11-27T23:19:29.988Z,92.63
2022-11-27T23:21:57.594Z,92.58
2022-11-27T23:24:29.455Z,92.55
2022-11-27T23:27:00.638Z,92.62
2022-11-27T23:29:28.310Z,92.63
2022-11-27T23:31:56.031Z,92.59
2022-11-27T23:34:23.952Z,92.63
2022-11-27T23:36:51.556Z,92.55
2022-11-27T23:39:19.068Z,92.55
2022-11-27T23:41:49.184Z,92.49
2022-11-27T23:44:17.640Z,92.89
2022-11-27T23:46:45.195Z,92.85
2022-11-27T23:49:12.664Z,92.93
2022-11-27T23:51:40.326Z,92.72
2022-11-27T23:54:10.176Z,92.61
2022-11-27T23:56:39.479Z,92.63
2022-11-27T23:59:07.736Z,92.71
